Moon, Virginia
Current Conditions -  °F | °C
As of 1:55 PM on Tuesday 27 Jan 2015 (Local Time) from KW75 Reporting Station
Broken Clouds Broken Clouds  
Wind Chill: 27°   Ceiling: 2300
Heat Index: 35°   Visibility: 10mi
Dew Point: 26°   Wind: 10mph
Humidity: 71%   Direction: 310°NW
Pressure: 29.76"   Gusts: 18mph
Location:  37.44°N, 76.29°W
Report Text: KW75 271855Z AUTO 31009G16KT 10SM BKN023 02/M03 A2976 RMK AO1 T00151033
Loading
Personal Weather Stations






























Interactive Weather Map New forecast layout! Learn more

10-Day Weather Forecast

Advertisements
Track Severe Weather on mobile